Главная страница
METAR-TAF:

METAR-TAF

Аэропорты :

Sam Mbakwe Airport

Оверри, Нигерия

широта: 5-25-35N, долгота: 7-12-20E, высота над уровнем моря: 114 м

Текущие метеонаблюдения

Эта сводка был подготовлена 5 часа и 44 минут назад, в 21:00 UTC
Штиль
Температура 27°C
Влажность 89%
Давление 1013 hPa
Видимость 10 км и более
Рассеянная облачность на высоте 1000 фута

METAR: DNIM 232100Z 00000KT 9999 BKN010 27/25 Q1013 NOSIG

Время: 03:44 (02:44 UTC)


TAF: отсутствует

Метеонаблюдения и прогнозы для более 4000 аэропортов (сводки METAR и TAF).

Имеющиеся станции представлены на карте желтыми и красными точками.

Чтобы увидеть название станции, наведите на нее мышь.

Затем щелкните, чтобы увидеть метеонаблюдения и метеопрогнозы.

Управление картой: чтобы увеличить масштаб, щелкните зеленые кнопки с черным крестиком; чтобы уменьшить масштаб, щелкните зеленую кнопку с тире; для просмотра соседних карт щелкайте зеленые стрелки.


METAR-TAF: